Time;durP1;ratioP1;P1;durP2;ratioP2;P2;SDS_P1;SDS_P2;PMS_P1;PMS_P2;Temp;Humidity;BMP_temperature;BMP_pressure;BME280_temperature;BME280_humidity;BME280_pressure;Samples;Min_cycle;Max_cycle;Signal;HPM_P1;HPM_P2
2021/12/20 00:00:15;;;;;;;5.40;2.10;;;;;;;1.52;75.50;99906.40;84701;1327;22610;-71
2021/12/20 00:02:45;;;;;;;3.50;1.70;;;;;;;1.54;75.47;99906.23;84718;1332;22607;-74
2021/12/20 00:04:53;;;;;;;4.70;1.60;;;;;;;1.55;75.67;99904.15;84649;1329;22650;-74
2021/12/20 00:06:59;;;;;;;3.90;1.70;;;;;;;1.59;75.68;99898.80;84662;1329;22939;-70
2021/12/20 00:09:07;;;;;;;5.70;2.10;;;;;;;1.59;75.43;99905.15;84671;1328;22615;-70
2021/12/20 00:11:17;;;;;;;2.20;1.40;;;;;;;1.59;75.48;99902.92;84644;1329;22627;-71
2021/12/20 00:13:24;;;;;;;1.40;1.10;;;;;;;1.58;75.25;99903.10;84636;1329;22878;-70
2021/12/20 00:15:32;;;;;;;4.70;1.40;;;;;;;1.57;75.19;99907.23;84693;1329;25466;-70
2021/12/20 00:17:39;;;;;;;3.90;2.30;;;;;;;1.53;75.07;99906.92;84774;1329;23594;-70
2021/12/20 00:19:49;;;;;;;2.70;1.50;;;;;;;1.50;74.86;99904.20;84741;1326;22618;-71
2021/12/20 00:22:00;;;;;;;7.40;2.50;;;;;;;1.46;74.76;99901.31;84753;1328;22711;-71
2021/12/20 00:24:10;;;;;;;3.90;1.80;;;;;;;1.46;74.82;99899.59;84767;1318;22935;-71
2021/12/20 00:26:19;;;;;;;;;;;;;;;1.46;74.74;99904.58;84810;1327;22673;-75
2021/12/20 00:28:29;;;;;;;7.00;1.40;;;;;;;1.44;74.83;99905.13;84778;1327;22604;-74
2021/12/20 00:30:37;;;;;;;;;;;;;;;1.45;74.80;99904.41;84830;1327;22945;-74
2021/12/20 00:32:44;;;;;;;3.50;1.50;;;;;;;1.44;74.98;99909.76;84773;1327;22620;-72
2021/12/20 00:34:54;;;;;;;2.60;1.40;;;;;;;1.43;74.93;99910.45;84751;1325;22613;-70
2021/12/20 00:37:05;;;;;;;4.40;1.90;;;;;;;1.43;74.99;99908.39;84766;1327;22600;-69
2021/12/20 00:41:40;;;;;;;3.10;1.80;;;;;;;1.38;74.75;99910.32;84748;1327;22602;-72
2021/12/20 00:43:50;;;;;;;6.60;2.20;;;;;;;1.30;74.90;99912.09;84766;1327;22625;-70
2021/12/20 00:46:00;;;;;;;3.50;1.70;;;;;;;1.23;74.82;99913.00;84768;1326;22888;-71
2021/12/20 00:48:11;;;;;;;4.10;2.00;;;;;;;1.15;74.74;99912.04;84055;1327;1003910;-74
2021/12/20 00:50:17;;;;;;;;;;;;;;;1.10;74.86;99911.55;84795;1327;26555;-74
2021/12/20 00:52:27;;;;;;;4.00;1.90;;;;;;;1.03;75.04;99910.23;84847;1318;22671;-74
2021/12/20 00:54:35;;;;;;;2.90;1.90;;;;;;;0.98;75.06;99910.09;84762;1330;22587;-75
2021/12/20 00:56:42;;;;;;;3.00;2.00;;;;;;;0.93;75.19;99911.33;84768;1326;25494;-74
2021/12/20 00:58:50;;;;;;;3.60;1.50;;;;;;;0.89;75.09;99910.48;84780;1326;22612;-75
2021/12/20 01:00:58;;;;;;;3.30;1.80;;;;;;;0.86;75.19;99912.57;84808;1326;25591;-74
2021/12/20 01:03:06;;;;;;;3.30;1.90;;;;;;;0.84;75.38;99915.16;84767;1327;22589;-74
2021/12/20 01:05:16;;;;;;;5.70;2.10;;;;;;;0.86;75.43;99918.24;84741;1327;22605;-74
2021/12/20 01:07:23;;;;;;;3.40;1.70;;;;;;;0.88;75.43;99919.59;84753;1321;22605;-74
2021/12/20 01:09:30;;;;;;;4.70;1.70;;;;;;;0.89;75.36;99915.13;84752;1326;25958;-74
2021/12/20 01:11:42;;;;;;;2.80;1.40;;;;;;;0.89;75.27;99912.39;84791;1328;22617;-74
2021/12/20 01:13:53;;;;;;;4.60;1.70;;;;;;;0.88;75.61;99917.20;84698;1326;24306;-75
2021/12/20 01:16:06;;;;;;;14.30;2.50;;;;;;;0.89;75.56;99913.25;84789;1326;26510;-73
2021/12/20 01:18:13;;;;;;;3.70;1.60;;;;;;;0.91;75.65;99918.90;84760;1327;22812;-74
2021/12/20 01:20:20;;;;;;;2.40;1.20;;;;;;;0.92;75.78;99914.08;84727;1327;23096;-75
2021/12/20 01:22:27;;;;;;;3.10;1.70;;;;;;;0.93;75.71;99912.52;84732;1325;22603;-76
2021/12/20 01:24:35;;;;;;;3.40;1.20;;;;;;;0.95;75.47;99911.66;84811;1324;22628;-75
2021/12/20 01:26:42;;;;;;;3.10;1.50;;;;;;;0.97;75.59;99909.92;84834;1326;22690;-74
2021/12/20 01:28:48;;;;;;;5.00;1.60;;;;;;;1.00;75.50;99909.58;84784;1327;22646;-74
2021/12/20 01:30:55;;;;;;;3.90;1.30;;;;;;;1.02;75.21;99909.20;84813;1326;22641;-75
2021/12/20 01:33:03;;;;;;;3.10;1.70;;;;;;;1.03;75.03;99911.77;84730;1327;26046;-71
2021/12/20 01:35:11;;;;;;;5.50;1.50;;;;;;;1.04;75.42;99909.54;84746;1325;22809;-71
2021/12/20 01:37:18;;;;;;;3.20;1.30;;;;;;;1.06;75.51;99909.70;84779;1327;22733;-71
2021/12/20 01:39:25;;;;;;;5.80;1.80;;;;;;;1.07;75.35;99905.40;84731;1327;24260;-71
2021/12/20 01:41:36;;;;;;;3.00;1.60;;;;;;;1.07;75.35;99904.19;84806;1327;22616;-71
2021/12/20 01:43:44;;;;;;;2.30;1.20;;;;;;;1.07;75.39;99909.86;84772;1322;26099;-72
2021/12/20 01:45:51;;;;;;;4.70;1.60;;;;;;;1.05;75.30;99908.67;84745;1328;22738;-71
2021/12/20 01:48:05;;;;;;;3.60;1.50;;;;;;;1.04;75.17;99913.15;84023;1327;1003324;-75
2021/12/20 01:50:18;;;;;;;5.80;1.80;;;;;;;1.03;75.35;99912.80;84788;1323;22615;-75
2021/12/20 01:52:28;;;;;;;2.20;1.40;;;;;;;1.05;75.21;99916.41;84794;1327;24170;-77
2021/12/20 01:54:34;;;;;;;3.10;1.30;;;;;;;1.08;75.39;99912.42;84800;1327;22610;-75
2021/12/20 01:56:43;;;;;;;4.40;1.40;;;;;;;1.12;75.17;99914.80;84758;1327;22694;-75
2021/12/20 01:58:50;;;;;;;2.90;1.60;;;;;;;1.14;74.98;99912.40;84784;1329;22885;-76
2021/12/20 02:03:41;;;;;;;5.90;1.70;;;;;;;1.20;75.21;99918.19;82042;1369;545603;-74
2021/12/20 02:05:53;;;;;;;3.40;1.80;;;;;;;1.20;75.23;99917.16;84284;1340;25541;-74
2021/12/20 02:08:13;;;;;;;4.70;1.80;;;;;;;1.22;75.28;99923.14;84275;1339;22765;-74
2021/12/20 02:10:20;;;;;;;2.70;1.20;;;;;;;1.22;74.94;99917.83;84289;1340;23981;-75
2021/12/20 02:12:32;;;;;;;3.20;1.20;;;;;;;1.20;75.11;99916.98;84308;1341;22620;-71
2021/12/20 02:14:40;;;;;;;4.10;1.90;;;;;;;1.18;75.07;99916.99;84276;1340;22592;-71
2021/12/20 02:16:47;;;;;;;4.70;1.50;;;;;;;1.17;75.21;99915.79;84130;1341;254723;-74
2021/12/20 02:18:53;;;;;;;5.20;1.90;;;;;;;1.19;75.14;99911.34;84360;1341;22633;-75
2021/12/20 02:21:01;;;;;;;2.20;1.30;;;;;;;1.18;75.11;99913.55;84348;1337;22975;-75
2021/12/20 02:23:11;;;;;;;3.50;2.00;;;;;;;1.19;75.05;99912.52;84382;1335;22748;-74
2021/12/20 02:25:19;;;;;;;2.80;2.00;;;;;;;1.21;75.27;99910.11;84355;1337;22613;-74
2021/12/20 02:27:25;;;;;;;5.10;2.00;;;;;;;1.21;75.01;99904.61;84327;1340;23936;-74
2021/12/20 02:29:44;;;;;;;3.80;1.40;;;;;;;1.22;75.17;99906.31;84358;1340;25491;-74
2021/12/20 02:37:15;;;;;;;3.10;1.60;;;;;;;1.24;75.35;99906.98;84376;1337;25458;-73
2021/12/20 02:39:23;;;;;;;2.50;1.50;;;;;;;1.21;75.21;99910.80;84351;1337;22966;-72
2021/12/20 02:41:33;;;;;;;2.80;1.60;;;;;;;1.20;75.20;99912.35;84704;1333;22589;-75
2021/12/20 02:43:42;;;;;;;3.00;1.60;;;;;;;1.19;75.38;99910.98;84707;1330;25626;-75
2021/12/20 02:45:49;;;;;;;4.00;1.20;;;;;;;1.20;75.50;99907.02;84655;1328;22615;-75
2021/12/20 02:47:56;;;;;;;3.50;1.60;;;;;;;1.22;75.16;99900.80;84716;1332;23949;-74
2021/12/20 02:50:03;;;;;;;4.60;1.10;;;;;;;1.24;75.00;99901.15;84697;1328;22786;-74
2021/12/20 02:52:11;;;;;;;3.50;1.40;;;;;;;1.25;75.39;99909.22;84674;1328;22599;-70
2021/12/20 02:54:18;;;;;;;2.20;1.30;;;;;;;1.28;75.58;99909.70;84682;1329;24305;-70
2021/12/20 02:56:25;;;;;;;4.10;1.40;;;;;;;1.28;75.70;99911.60;84706;1331;25505;-70
2021/12/20 02:58:35;;;;;;;3.60;1.40;;;;;;;1.26;75.92;99907.31;84678;1328;22831;-70
2021/12/20 03:00:42;;;;;;;2.90;1.60;;;;;;;1.25;75.93;99899.08;84691;1328;22607;-70
2021/12/20 03:02:49;;;;;;;2.40;1.20;;;;;;;1.21;75.92;99892.24;84687;1326;22589;-74
2021/12/20 03:04:56;;;;;;;3.90;1.40;;;;;;;1.16;75.97;99887.11;83955;1329;1002558;-75
2021/12/20 03:07:07;;;;;;;2.50;1.40;;;;;;;1.13;76.09;99884.57;84685;1328;24954;-70
2021/12/20 03:09:18;;;;;;;2.20;0.90;;;;;;;1.14;76.37;99882.84;84698;1327;26486;-70
2021/12/20 03:11:26;;;;;;;3.50;1.30;;;;;;;1.17;76.21;99887.11;84690;1333;25424;-73
2021/12/20 03:13:36;;;;;;;3.40;1.60;;;;;;;1.17;76.17;99886.59;84690;1329;24875;-75
2021/12/20 03:15:43;;;;;;;3.90;1.70;;;;;;;1.16;76.03;99885.05;84853;1324;25488;-75
2021/12/20 03:17:52;;;;;;;3.20;1.40;;;;;;;1.12;76.03;99884.39;84878;1324;22583;-70
2021/12/20 03:19:59;;;;;;;3.30;2.10;;;;;;;1.09;76.09;99880.65;84843;1322;22580;-71
2021/12/20 03:22:09;;;;;;;5.20;1.50;;;;;;;1.06;76.11;99885.65;84824;1327;22693;-70
2021/12/20 03:24:19;;;;;;;2.40;1.50;;;;;;;1.06;76.36;99885.99;84839;1324;23926;-71
2021/12/20 03:26:27;;;;;;;4.90;1.50;;;;;;;1.05;76.60;99875.54;84883;1326;22577;-74
2021/12/20 03:28:34;;;;;;;2.60;1.70;;;;;;;1.03;76.43;99873.30;84789;1326;23753;-76
2021/12/20 03:30:44;;;;;;;5.80;1.90;;;;;;;1.01;76.38;99881.04;84748;1327;22664;-75
2021/12/20 03:32:49;;;;;;;;;;;;;;;1.01;76.48;99880.19;84857;1324;24253;-74
2021/12/20 03:34:56;;;;;;;3.60;1.60;;;;;;;1.00;76.72;99881.92;84832;1323;22600;-74
2021/12/20 03:37:03;;;;;;;4.60;1.70;;;;;;;1.03;76.58;99877.41;84882;1327;22589;-75
2021/12/20 03:39:10;;;;;;;4.40;2.00;;;;;;;1.05;76.93;99882.39;84839;1324;22600;-75
2021/12/20 03:41:17;;;;;;;3.40;1.30;;;;;;;1.09;76.68;99887.86;84845;1324;22608;-74
2021/12/20 03:43:31;;;;;;;2.60;1.20;;;;;;;1.10;76.63;99882.88;84827;1324;23997;-75
2021/12/20 03:45:38;;;;;;;2.70;1.30;;;;;;;1.09;76.77;99877.04;84783;1327;22603;-74
2021/12/20 03:47:44;;;;;;;1.40;1.00;;;;;;;1.10;76.65;99878.06;84857;1324;25924;-70
2021/12/20 03:49:51;;;;;;;1.90;1.20;;;;;;;1.12;77.00;99874.27;84843;1324;22752;-70
2021/12/20 03:52:04;;;;;;;2.90;1.30;;;;;;;1.12;76.72;99874.44;84866;1323;22593;-70
2021/12/20 03:54:11;;;;;;;3.90;1.20;;;;;;;1.09;76.94;99875.33;84848;1324;22759;-70
2021/12/20 03:56:18;;;;;;;4.50;1.00;;;;;;;1.05;77.04;99873.30;84868;1325;24272;-71
2021/12/20 03:58:27;;;;;;;1.30;1.10;;;;;;;1.03;77.08;99872.95;84794;1326;22707;-71
2021/12/20 04:00:34;;;;;;;1.40;0.80;;;;;;;1.02;77.02;99875.19;84761;1327;22724;-71
2021/12/20 04:02:44;;;;;;;2.20;1.10;;;;;;;1.03;77.32;99874.84;84862;1326;22609;-71
2021/12/20 04:04:51;;;;;;;1.80;1.10;;;;;;;1.06;77.49;99877.41;84861;1328;25441;-71
2021/12/20 04:06:58;;;;;;;1.90;1.30;;;;;;;1.06;77.53;99874.83;84846;1324;22603;-73
2021/12/20 04:09:06;;;;;;;3.80;1.20;;;;;;;1.08;77.86;99877.39;84832;1324;25294;-75
2021/12/20 04:11:13;;;;;;;4.20;1.20;;;;;;;1.09;77.92;99877.38;84844;1324;22819;-73
2021/12/20 04:13:20;;;;;;;3.00;1.10;;;;;;;1.09;78.12;99870.34;84772;1327;22590;-74
2021/12/20 04:15:28;;;;;;;2.60;0.90;;;;;;;1.08;78.34;99870.86;84833;1325;25494;-75
2021/12/20 04:17:35;;;;;;;2.60;1.10;;;;;;;1.08;78.22;99872.74;84837;1322;22599;-74
2021/12/20 04:19:42;;;;;;;1.40;0.90;;;;;;;1.05;78.26;99879.47;84865;1324;22613;-74
2021/12/20 04:21:50;;;;;;;4.00;1.50;;;;;;;1.03;78.39;99883.44;84837;1326;22629;-71
2021/12/20 04:24:01;;;;;;;3.10;1.30;;;;;;;1.02;78.53;99878.11;84867;1324;22664;-70
2021/12/20 04:26:09;;;;;;;;;;;;;;;1.05;78.59;99884.64;84860;1325;22632;-70
2021/12/20 04:28:19;;;;;;;6.60;2.60;;;;;;;1.02;78.69;99887.22;84857;1324;22624;-74
2021/12/20 04:30:31;;;;;;;1.80;1.00;;;;;;;1.03;78.78;99887.73;84848;1328;24177;-74
2021/12/20 04:32:38;;;;;;;3.30;1.20;;;;;;;1.03;79.02;99880.86;84890;1326;22598;-75
2021/12/20 04:34:45;;;;;;;1.90;1.50;;;;;;;1.03;78.92;99881.20;84847;1322;22589;-74
2021/12/20 04:36:53;;;;;;;1.10;0.90;;;;;;;1.04;79.10;99880.69;84856;1324;22599;-74
2021/12/20 04:39:04;;;;;;;5.90;2.30;;;;;;;1.04;79.29;99877.08;84860;1325;22670;-74
2021/12/20 04:41:14;;;;;;;2.20;1.10;;;;;;;1.05;79.37;99884.29;84834;1326;22694;-75
2021/12/20 04:43:21;;;;;;;5.20;2.20;;;;;;;1.07;79.10;99884.61;84851;1328;24007;-70
2021/12/20 04:45:32;;;;;;;2.40;1.00;;;;;;;1.13;79.34;99889.02;84878;1324;24278;-70
2021/12/20 04:47:40;;;;;;;;;;;;;;;1.17;79.47;99886.58;84822;1324;25450;-74
2021/12/20 04:49:47;;;;;;;2.60;1.10;;;;;;;1.19;79.53;99890.88;84859;1326;22622;-75
2021/12/20 04:51:57;;;;;;;3.20;1.20;;;;;;;1.24;79.62;99881.39;84769;1326;22615;-73
2021/12/20 04:54:04;;;;;;;4.00;1.10;;;;;;;1.26;79.61;99891.67;84843;1322;22616;-75
2021/12/20 04:56:14;;;;;;;2.00;1.70;;;;;;;1.26;79.59;99893.05;84854;1324;22755;-73
2021/12/20 04:58:24;;;;;;;3.80;0.90;;;;;;;1.24;79.42;99891.19;84843;1325;22589;-74
2021/12/20 05:00:32;;;;;;;;;;;;;;;1.21;79.90;99900.66;84838;1328;22596;-74
2021/12/20 05:02:42;;;;;;;3.00;1.50;;;;;;;1.16;80.10;99903.95;84855;1328;22580;-74
2021/12/20 05:04:52;;;;;;;1.60;1.10;;;;;;;1.17;80.32;99906.35;84869;1324;24363;-74
2021/12/20 05:07:03;;;;;;;4.20;1.00;;;;;;;1.18;80.10;99908.74;84855;1322;22708;-75
2021/12/20 05:09:13;;;;;;;2.10;1.10;;;;;;;1.18;80.16;99908.58;84838;1324;26647;-74
2021/12/20 05:11:20;;;;;;;1.60;1.10;;;;;;;1.22;80.22;99904.77;84869;1324;23786;-74
2021/12/20 05:13:27;;;;;;;1.50;0.80;;;;;;;1.25;80.42;99905.27;84797;1327;22681;-75
2021/12/20 05:15:35;;;;;;;2.30;1.10;;;;;;;1.27;80.58;99916.40;84862;1324;22617;-74
2021/12/20 05:17:42;;;;;;;1.80;1.20;;;;;;;1.29;80.42;99921.55;84863;1325;25278;-71
2021/12/20 05:19:49;;;;;;;3.30;1.60;;;;;;;1.30;80.48;99923.96;84817;1322;22599;-70
2021/12/20 05:21:56;;;;;;;1.50;1.20;;;;;;;1.33;80.43;99926.69;84836;1326;22607;-75
2021/12/20 05:24:03;;;;;;;1.10;1.00;;;;;;;1.33;80.48;99929.95;84834;1324;22762;-75
2021/12/20 05:26:18;;;;;;;1.70;1.10;;;;;;;1.34;80.54;99929.77;84841;1326;22580;-75
2021/12/20 05:28:25;;;;;;;3.60;1.30;;;;;;;1.35;80.56;99927.88;84844;1328;24318;-71
2021/12/20 05:30:32;;;;;;;1.80;1.00;;;;;;;1.36;80.39;99927.52;84831;1324;22623;-70
2021/12/20 05:32:42;;;;;;;1.40;0.80;;;;;;;1.38;80.65;99936.95;84843;1324;22819;-74
2021/12/20 05:34:48;;;;;;;;;;;;;;;1.38;80.59;99941.94;84837;1323;22567;-74
2021/12/20 05:36:54;;;;;;;1.70;0.90;;;;;;;1.38;80.87;99945.73;84865;1324;25454;-70
2021/12/20 05:39:01;;;;;;;2.70;1.20;;;;;;;1.40;80.93;99948.28;84835;1324;23886;-71
2021/12/20 05:41:09;;;;;;;1.20;1.10;;;;;;;1.41;80.99;99949.99;84843;1328;22606;-69
2021/12/20 05:43:16;;;;;;;2.70;1.20;;;;;;;1.41;81.01;99953.09;84803;1326;22585;-70
2021/12/20 05:45:26;;;;;;;2.70;1.30;;;;;;;1.40;80.90;99953.45;84850;1324;22606;-70
2021/12/20 05:47:33;;;;;;;1.60;1.50;;;;;;;1.38;81.00;99956.54;84148;1328;1003587;-70
2021/12/20 05:49:43;;;;;;;1.80;1.20;;;;;;;1.39;81.08;99958.95;84813;1326;22710;-70
2021/12/20 05:51:55;;;;;;;1.40;1.10;;;;;;;1.40;81.14;99955.33;84823;1324;23817;-75
2021/12/20 05:54:05;;;;;;;1.90;1.20;;;;;;;1.42;81.03;99957.55;84822;1325;23944;-75
2021/12/20 05:56:13;;;;;;;1.20;0.70;;;;;;;1.43;81.14;99959.27;84838;1327;22588;-73
2021/12/20 05:58:23;;;;;;;1.80;1.60;;;;;;;1.45;81.29;99961.14;84835;1324;22596;-71
2021/12/20 06:00:28;;;;;;;;;;;;;;;1.46;81.24;99961.81;84831;1322;23198;-71
2021/12/20 06:02:35;;;;;;;2.80;1.20;;;;;;;1.44;81.43;99967.67;84850;1324;22793;-74
2021/12/20 06:04:42;;;;;;;2.80;1.50;;;;;;;1.43;81.45;99979.71;84833;1324;22581;-74
2021/12/20 06:06:53;;;;;;;1.70;1.30;;;;;;;1.41;81.56;99985.39;84857;1326;22584;-75
2021/12/20 06:09:03;;;;;;;1.90;1.30;;;;;;;1.39;81.58;99989.88;84830;1325;23935;-73
2021/12/20 06:11:13;;;;;;;2.00;1.60;;;;;;;1.36;81.71;100001.77;84844;1325;22749;-74
2021/12/20 06:13:24;;;;;;;2.40;1.30;;;;;;;1.35;81.72;99999.02;84861;1322;22997;-75
2021/12/20 06:15:32;;;;;;;;;;;;;;;1.36;81.93;100005.71;84843;1324;22584;-75
2021/12/20 06:17:39;;;;;;;2.00;1.80;;;;;;;1.32;81.98;100007.61;84853;1325;22674;-75
2021/12/20 06:19:45;;;;;;;2.00;1.40;;;;;;;1.33;82.19;100004.19;84833;1324;23140;-74
2021/12/20 06:21:52;;;;;;;2.80;1.60;;;;;;;1.38;82.13;100003.13;84852;1324;22591;-72
2021/12/20 06:23:59;;;;;;;1.60;1.40;;;;;;;1.40;82.23;100011.36;84815;1328;23923;-70
2021/12/20 06:26:07;;;;;;;1.60;1.40;;;;;;;1.40;82.07;100014.96;84818;1325;25438;-71
2021/12/20 06:28:17;;;;;;;2.40;1.70;;;;;;;1.36;81.79;100019.13;84822;1324;22671;-74
2021/12/20 06:30:25;;;;;;;1.60;1.40;;;;;;;1.34;82.05;100018.45;84821;1328;22707;-75
2021/12/20 06:32:32;;;;;;;1.60;1.50;;;;;;;1.32;81.88;100031.85;84870;1322;22584;-71
2021/12/20 06:34:39;;;;;;;3.30;1.50;;;;;;;1.31;81.85;100029.80;84839;1324;22613;-71
2021/12/20 06:36:49;;;;;;;1.90;1.60;;;;;;;1.33;81.89;100031.67;84854;1324;24229;-73
2021/12/20 06:38:57;;;;;;;1.70;1.60;;;;;;;1.34;82.04;100034.44;84818;1324;22606;-71
2021/12/20 06:41:04;;;;;;;2.40;1.80;;;;;;;1.36;81.99;100040.61;84837;1324;22594;-71
2021/12/20 06:43:15;;;;;;;1.70;1.60;;;;;;;1.37;81.94;100041.96;84828;1321;22586;-75
2021/12/20 06:45:20;;;;;;;;;;;;;;;1.37;81.91;100040.06;84836;1324;22634;-74
2021/12/20 06:47:27;;;;;;;3.60;1.80;;;;;;;1.38;82.03;100044.20;84837;1324;22619;-71
2021/12/20 06:49:35;;;;;;;3.80;1.80;;;;;;;1.38;82.17;100041.27;84844;1324;22644;-70
2021/12/20 06:51:43;;;;;;;2.80;1.70;;;;;;;1.37;82.00;100040.92;84848;1328;22901;-75
2021/12/20 06:53:50;;;;;;;2.50;1.80;;;;;;;1.38;82.03;100043.16;84835;1324;24393;-74
2021/12/20 06:55:57;;;;;;;1.80;1.60;;;;;;;1.38;81.94;100047.64;84866;1324;22587;-73
2021/12/20 06:58:04;;;;;;;4.00;2.20;;;;;;;1.39;82.02;100049.02;84789;1327;24113;-76
2021/12/20 07:00:16;;;;;;;3.20;1.60;;;;;;;1.41;82.10;100052.42;84838;1325;22593;-75
2021/12/20 07:02:23;;;;;;;2.30;1.60;;;;;;;1.43;82.08;100055.84;84884;1324;22901;-75
2021/12/20 07:04:33;;;;;;;2.10;1.50;;;;;;;1.44;81.95;100061.70;84842;1324;22628;-74
2021/12/20 07:06:40;;;;;;;2.10;1.60;;;;;;;1.45;81.93;100061.00;84795;1328;22580;-71
2021/12/20 07:08:47;;;;;;;1.70;1.60;;;;;;;1.45;82.08;100060.14;84844;1324;22942;-71
2021/12/20 07:10:54;;;;;;;2.20;2.00;;;;;;;1.45;81.80;100059.12;84856;1324;22587;-70
2021/12/20 07:13:02;;;;;;;3.40;2.10;;;;;;;1.44;82.06;100064.10;84862;1325;24276;-75
2021/12/20 07:15:12;;;;;;;2.40;1.50;;;;;;;1.45;81.88;100064.44;84836;1324;22587;-75
2021/12/20 07:17:20;;;;;;;3.80;1.50;;;;;;;1.45;81.85;100065.12;84851;1325;22824;-70
2021/12/20 07:19:30;;;;;;;30.40;15.30;;;;;;;1.47;81.74;100068.55;84809;1325;26547;-71
2021/12/20 07:21:37;;;;;;;64.00;34.40;;;;;;;1.50;81.75;100068.01;84863;1324;22596;-71
2021/12/20 07:23:44;;;;;;;13.60;8.40;;;;;;;1.54;81.86;100075.05;84844;1324;25499;-71
2021/12/20 07:25:51;;;;;;;4.40;2.10;;;;;;;1.57;81.76;100081.55;84826;1324;25971;-70
2021/12/20 07:27:58;;;;;;;3.50;2.70;;;;;;;1.57;81.65;100085.32;83438;1320;1003746;-77
2021/12/20 07:30:11;;;;;;;2.70;2.40;;;;;;;1.55;81.75;100083.29;84846;1322;22649;-76
2021/12/20 07:32:18;;;;;;;3.50;2.40;;;;;;;1.55;81.74;100087.92;84863;1324;22612;-69
2021/12/20 07:34:25;;;;;;;3.10;2.40;;;;;;;1.57;81.69;100093.07;84825;1324;24234;-70
2021/12/20 07:36:35;;;;;;;2.10;1.90;;;;;;;1.56;81.54;100090.66;84764;1327;22593;-68
2021/12/20 07:38:45;;;;;;;2.00;1.80;;;;;;;1.59;81.70;100086.36;84851;1323;22589;-70
2021/12/20 07:40:55;;;;;;;2.30;1.90;;;;;;;1.61;81.65;100087.89;84839;1324;22610;-69
2021/12/20 07:43:03;;;;;;;2.20;1.90;;;;;;;1.59;81.51;100087.57;84848;1323;25291;-76
2021/12/20 07:45:13;;;;;;;2.70;2.40;;;;;;;1.61;81.56;100090.81;84836;1324;22723;-75
2021/12/20 07:47:23;;;;;;;3.70;2.30;;;;;;;1.63;81.71;100088.05;84857;1325;22669;-75
2021/12/20 07:49:30;;;;;;;2.70;2.50;;;;;;;1.66;81.77;100088.20;84774;1325;22607;-76
2021/12/20 07:51:41;;;;;;;2.40;2.00;;;;;;;1.69;81.72;100090.09;84840;1324;22882;-71
2021/12/20 07:53:51;;;;;;;2.90;2.60;;;;;;;1.71;81.69;100093.84;84850;1324;22576;-70
2021/12/20 07:55:58;;;;;;;3.60;2.10;;;;;;;1.73;81.64;100095.23;84820;1324;25322;-71
2021/12/20 07:58:05;;;;;;;2.20;2.00;;;;;;;1.76;81.59;100091.91;84855;1326;22556;-76
2021/12/20 08:00:14;;;;;;;2.40;2.20;;;;;;;1.81;81.45;100099.97;84823;1321;22583;-76
2021/12/20 08:02:21;;;;;;;2.50;2.00;;;;;;;1.88;81.48;100097.35;84837;1318;22730;-71
2021/12/20 08:04:28;;;;;;;2.00;1.80;;;;;;;1.92;81.50;100100.24;84812;1324;22587;-70
2021/12/20 08:06:35;;;;;;;2.40;2.10;;;;;;;1.94;81.34;100105.20;84833;1324;22902;-77
2021/12/20 08:08:43;;;;;;;3.50;2.40;;;;;;;1.97;81.26;100104.17;84108;1324;1004640;-76
2021/12/20 08:10:50;;;;;;;4.10;2.60;;;;;;;1.99;81.10;100109.66;84813;1325;22611;-76
2021/12/20 08:12:57;;;;;;;2.80;2.60;;;;;;;1.96;80.96;100110.71;84847;1328;22581;-71
2021/12/20 08:15:05;;;;;;;3.50;2.70;;;;;;;1.93;80.86;100112.61;84835;1325;25322;-71
2021/12/20 08:17:12;;;;;;;3.00;2.10;;;;;;;1.92;80.88;100119.17;84844;1327;24293;-75
2021/12/20 08:19:19;;;;;;;2.40;2.10;;;;;;;1.95;80.81;100121.54;84860;1324;25318;-75
2021/12/20 08:21:28;;;;;;;3.70;2.10;;;;;;;1.96;80.77;100120.67;84842;1324;22606;-76
2021/12/20 08:23:40;;;;;;;2.80;2.60;;;;;;;1.97;80.85;100129.80;84842;1324;24253;-77
2021/12/20 08:25:49;;;;;;;2.70;2.10;;;;;;;1.97;80.87;100125.32;84785;1323;22968;-76
2021/12/20 08:27:59;;;;;;;2.60;2.40;;;;;;;1.99;80.79;100127.02;84785;1327;22592;-77
2021/12/20 08:30:12;;;;;;;2.90;2.20;;;;;;;1.95;80.64;100127.73;84836;1324;22615;-75
2021/12/20 08:32:23;;;;;;;2.90;2.70;;;;;;;1.94;80.97;100131.36;84864;1324;22618;-76
2021/12/20 08:34:33;;;;;;;3.70;2.50;;;;;;;1.94;80.98;100132.40;84845;1324;22828;-75
2021/12/20 08:36:41;;;;;;;4.30;2.60;;;;;;;1.92;81.05;100127.95;82021;1319;1016420;-71
2021/12/20 08:38:48;;;;;;;3.20;2.60;;;;;;;1.93;81.10;100132.75;84792;1327;24439;-75
2021/12/20 08:40:58;;;;;;;2.80;2.40;;;;;;;1.91;80.93;100134.30;84847;1324;23958;-71
2021/12/20 08:43:08;;;;;;;2.50;2.30;;;;;;;1.90;80.82;100138.10;84846;1324;24260;-75
2021/12/20 08:45:22;;;;;;;2.50;2.10;;;;;;;1.86;80.74;100143.45;84796;1327;22598;-75
2021/12/20 08:47:32;;;;;;;2.50;1.70;;;;;;;1.80;80.83;100142.46;84841;1322;22597;-76
2021/12/20 08:49:39;;;;;;;2.30;2.00;;;;;;;1.76;80.79;100146.45;84842;1325;22750;-76
2021/12/20 08:51:54;;;;;;;3.90;1.80;;;;;;;1.71;80.93;100148.88;84863;1324;22639;-75
2021/12/20 08:54:02;;;;;;;2.60;2.10;;;;;;;1.66;80.87;100145.98;84839;1324;22616;-75
2021/12/20 08:56:13;;;;;;;2.60;2.30;;;;;;;1.62;81.07;100147.38;84816;1324;22589;-75
2021/12/20 08:58:21;;;;;;;2.30;1.80;;;;;;;1.60;81.05;100155.30;84838;1324;22611;-70
2021/12/20 09:00:30;;;;;;;1.90;1.70;;;;;;;1.57;80.93;100162.02;84831;1326;22589;-69
2021/12/20 09:02:40;;;;;;;2.40;2.00;;;;;;;1.55;81.01;100163.73;84850;1324;22591;-75
2021/12/20 09:04:47;;;;;;;3.20;2.40;;;;;;;1.48;81.07;100166.17;84844;1324;24260;-76
2021/12/20 09:06:54;;;;;;;3.30;2.10;;;;;;;1.45;80.95;100168.25;84816;1325;23901;-75
2021/12/20 09:09:01;;;;;;;2.60;2.20;;;;;;;1.39;81.10;100176.36;84830;1324;25476;-75
2021/12/20 09:11:12;;;;;;;1.60;1.50;;;;;;;1.33;81.06;100184.63;84827;1324;22953;-77
2021/12/20 09:13:22;;;;;;;2.70;2.20;;;;;;;1.26;81.05;100193.58;84078;1326;1003187;-73
2021/12/20 09:15:33;;;;;;;1.40;1.00;;;;;;;1.18;80.82;100193.27;84841;1324;22601;-73
2021/12/20 09:17:38;;;;;;;;;;;;;;;1.10;80.67;100190.02;84776;1326;22585;-76
2021/12/20 09:19:48;;;;;;;1.10;0.90;;;;;;;1.02;81.06;100190.55;84840;1324;24009;-75
2021/12/20 09:21:53;;;;;;;;;;;;;;;1.01;81.19;100194.68;84867;1324;25315;-73
2021/12/20 09:24:00;;;;;;;1.20;0.80;;;;;;;0.97;80.94;100197.09;84811;1324;25447;-72
2021/12/20 09:26:12;;;;;;;1.70;1.00;;;;;;;0.97;80.94;100205.50;84837;1322;22799;-72
2021/12/20 09:28:22;;;;;;;2.00;1.20;;;;;;;0.93;80.71;100201.56;84866;1324;26012;-73
2021/12/20 09:30:30;;;;;;;;;;;;;;;0.86;80.56;100207.41;84826;1324;23162;-73
2021/12/20 09:32:38;;;;;;;1.10;0.60;;;;;;;0.79;80.75;100208.27;84866;1319;22706;-73
2021/12/20 09:34:45;;;;;;;0.60;0.60;;;;;;;0.75;80.94;100211.38;84843;1323;22595;-72
2021/12/20 09:36:54;;;;;;;1.20;0.80;;;;;;;0.70;80.93;100212.75;84827;1322;22761;-72
2021/12/20 09:39:02;;;;;;;0.90;0.70;;;;;;;0.63;80.99;100213.79;84739;1327;25490;-74
2021/12/20 09:41:27;;;;;;;1.00;0.50;;;;;;;0.57;81.31;100211.90;84791;1326;22857;-73
2021/12/20 09:43:38;;;;;;;0.60;0.60;;;;;;;0.51;81.40;100217.38;84836;1324;22947;-74
2021/12/20 09:45:49;;;;;;;0.90;0.60;;;;;;;0.49;81.70;100221.85;84770;1325;22592;-75
2021/12/20 09:47:59;;;;;;;1.40;0.80;;;;;;;0.53;81.89;100219.95;84828;1321;22624;-70
2021/12/20 09:50:11;;;;;;;0.70;0.70;;;;;;;0.59;82.02;100220.65;84846;1325;22821;-70
2021/12/20 09:52:26;;;;;;;1.00;0.80;;;;;;;0.69;82.16;100228.89;84804;1318;22655;-71
2021/12/20 09:54:39;;;;;;;2.50;1.20;;;;;;;0.75;81.95;100231.47;84832;1324;22602;-70
2021/12/20 09:56:46;;;;;;;1.40;0.90;;;;;;;0.75;81.91;100237.30;84859;1324;24255;-70
2021/12/20 09:58:57;;;;;;;1.10;1.00;;;;;;;0.72;81.84;100237.12;84836;1324;22600;-69
2021/12/20 10:01:05;;;;;;;3.50;1.80;;;;;;;0.74;82.12;100233.02;84831;1324;25491;-70
2021/12/20 10:03:13;;;;;;;2.50;1.50;;;;;;;0.78;82.09;100235.58;84837;1324;26025;-71
2021/12/20 10:05:23;;;;;;;2.60;1.80;;;;;;;0.82;82.39;100231.45;84828;1328;23196;-72
2021/12/20 10:07:32;;;;;;;1.30;1.00;;;;;;;0.89;81.88;100234.55;84881;1324;22603;-77
2021/12/20 10:09:46;;;;;;;5.70;1.80;;;;;;;0.93;81.75;100238.14;84852;1324;22592;-76
2021/12/20 10:11:53;;;;;;;5.10;3.40;;;;;;;0.96;81.09;100241.58;84863;1322;22886;-72
2021/12/20 10:14:08;;;;;;;6.60;3.90;;;;;;;1.00;81.00;100240.36;84844;1324;25328;-72
2021/12/20 10:16:18;;;;;;;6.10;3.90;;;;;;;1.10;81.03;100241.39;84852;1324;22683;-76
2021/12/20 10:18:25;;;;;;;2.80;1.70;;;;;;;1.15;80.88;100240.52;82489;1324;3273147;-77
2021/12/20 10:20:36;;;;;;;4.10;2.00;;;;;;;1.19;80.64;100237.77;84853;1324;25371;-77
2021/12/20 10:22:45;;;;;;;3.20;2.00;;;;;;;1.22;80.61;100240.84;84830;1324;25511;-76